createdAt,value
2019-01-21T00:01:43.087Z,43.30
2019-01-21T00:04:12.660Z,44.77
2019-01-21T00:06:42.226Z,42.70
2019-01-21T00:09:11.812Z,32.80
2019-01-21T00:11:41.354Z,32.07
2019-01-21T00:14:10.928Z,29.27
2019-01-21T00:16:40.473Z,31.03
2019-01-21T00:19:10.037Z,33.17
2019-01-21T00:21:39.849Z,30.00
2019-01-21T00:24:09.437Z,28.73
2019-01-21T00:26:38.995Z,27.77
2019-01-21T00:29:08.817Z,26.60
2019-01-21T00:31:38.356Z,26.37
2019-01-21T00:34:07.954Z,27.50
2019-01-21T00:36:39.549Z,25.40
2019-01-21T00:39:09.200Z,22.97
2019-01-21T00:41:38.780Z,23.20
2019-01-21T00:44:08.346Z,26.17
2019-01-21T00:46:37.905Z,24.60
2019-01-21T00:49:07.501Z,25.03
2019-01-21T00:51:37.124Z,22.13
2019-01-21T00:54:06.692Z,22.50
2019-01-21T00:56:36.264Z,22.17
2019-01-21T00:59:05.822Z,21.80
2019-01-21T01:01:35.375Z,23.30
2019-01-21T01:04:05.014Z,21.00
2019-01-21T01:06:34.556Z,21.33
2019-01-21T01:09:06.523Z,23.70
2019-01-21T01:11:36.062Z,22.77
2019-01-21T01:14:05.865Z,22.83
2019-01-21T01:16:35.416Z,22.83
2019-01-21T01:19:05.061Z,22.27
2019-01-21T01:21:34.602Z,22.90
2019-01-21T01:24:07.392Z,21.47
2019-01-21T01:26:36.980Z,21.33
2019-01-21T01:29:06.540Z,23.63
2019-01-21T01:31:36.921Z,21.93
2019-01-21T01:34:06.459Z,22.50
2019-01-21T01:36:36.024Z,22.87
2019-01-21T01:39:07.881Z,21.80
2019-01-21T01:41:37.440Z,23.20
2019-01-21T01:44:07.030Z,23.27
2019-01-21T01:46:36.583Z,23.03
2019-01-21T01:49:06.179Z,21.87
2019-01-21T01:51:38.157Z,24.33
2019-01-21T01:54:07.711Z,21.87
2019-01-21T01:56:38.199Z,21.50
2019-01-21T01:59:07.778Z,20.33
2019-01-21T02:01:38.880Z,20.87
2019-01-21T02:04:08.466Z,20.87
2019-01-21T02:06:38.021Z,20.30
2019-01-21T02:09:08.614Z,21.47
2019-01-21T02:11:39.761Z,20.77
2019-01-21T02:14:09.294Z,19.90
2019-01-21T02:16:38.951Z,21.83
2019-01-21T02:19:08.533Z,20.63
2019-01-21T02:21:38.654Z,20.20
2019-01-21T02:24:08.630Z,22.83
2019-01-21T02:26:42.713Z,22.70
2019-01-21T02:29:16.659Z,22.10
2019-01-21T02:32:06.415Z,22.93
2019-01-21T02:34:49.258Z,21.67
2019-01-21T02:37:28.908Z,21.63
2019-01-21T02:40:42.114Z,22.07
2019-01-21T02:43:38.777Z,20.73
2019-01-21T02:46:27.836Z,21.73
2019-01-21T02:49:25.394Z,21.07
2019-01-21T02:52:25.056Z,22.33
2019-01-21T02:55:42.699Z,20.50
2019-01-21T02:58:31.484Z,20.17
2019-01-21T03:01:22.427Z,21.37
2019-01-21T03:04:05.550Z,21.10
2019-01-21T03:06:56.074Z,20.27
2019-01-21T03:09:48.140Z,19.83
2019-01-21T03:12:40.437Z,19.40
2019-01-21T03:15:52.232Z,19.83
2019-01-21T03:18:31.999Z,20.00
2019-01-21T03:21:26.949Z,20.20
2019-01-21T03:24:17.605Z,21.27
2019-01-21T03:26:54.742Z,18.57
2019-01-21T03:29:59.145Z,19.80
2019-01-21T03:32:53.965Z,18.00
2019-01-21T03:36:00.979Z,20.00
2019-01-21T03:38:44.360Z,18.33
2019-01-21T03:41:27.321Z,18.40
2019-01-21T03:44:10.450Z,19.10
2019-01-21T03:46:53.506Z,18.73
2019-01-21T03:49:45.342Z,17.07
2019-01-21T03:52:34.145Z,18.57
2019-01-21T03:55:07.896Z,17.43
2019-01-21T03:57:47.609Z,17.67
2019-01-21T04:00:21.869Z,18.53
2019-01-21T04:02:58.847Z,19.00
2019-01-21T04:05:42.040Z,18.03
2019-01-21T04:08:34.352Z,17.87
2019-01-21T04:11:28.658Z,16.30
2019-01-21T04:14:14.963Z,17.30
2019-01-21T04:16:51.988Z,17.97
2019-01-21T04:19:28.964Z,17.33
2019-01-21T04:22:19.593Z,17.10
2019-01-21T04:24:56.420Z,18.30
2019-01-21T04:27:50.206Z,16.67
2019-01-21T04:30:36.238Z,16.77
2019-01-21T04:33:36.878Z,16.20
2019-01-21T04:36:44.041Z,15.87
2019-01-21T04:39:20.886Z,16.23
2019-01-21T04:42:30.861Z,16.77
2019-01-21T04:45:10.697Z,16.07
2019-01-21T04:48:13.058Z,16.87
2019-01-21T04:51:11.063Z,16.27
2019-01-21T04:53:50.184Z,15.97
2019-01-21T04:56:57.341Z,16.50
2019-01-21T04:59:54.628Z,15.30
2019-01-21T05:02:40.412Z,16.20
2019-01-21T05:05:32.567Z,15.70
2019-01-21T05:08:39.708Z,15.27
2019-01-21T05:11:50.656Z,15.20
2019-01-21T05:14:50.322Z,14.77
2019-01-21T05:17:55.042Z,14.90
2019-01-21T05:20:59.192Z,15.97
2019-01-21T05:24:10.088Z,15.27
2019-01-21T05:26:49.375Z,15.53
2019-01-21T05:29:35.265Z,15.10
2019-01-21T05:32:39.774Z,14.83
2019-01-21T05:35:48.821Z,14.93
2019-01-21T05:38:34.559Z,15.50
2019-01-21T05:41:21.148Z,15.87
2019-01-21T05:44:12.868Z,16.17
2019-01-21T05:47:14.078Z,17.90
2019-01-21T05:50:13.039Z,15.90
2019-01-21T05:52:58.740Z,15.07
2019-01-21T05:56:05.802Z,16.00
2019-01-21T05:58:54.803Z,16.53
2019-01-21T06:01:52.652Z,15.70
2019-01-21T06:04:44.820Z,16.47
2019-01-21T06:07:56.576Z,17.90
2019-01-21T06:10:51.172Z,39.17
2019-01-21T06:13:49.306Z,49.80
2019-01-21T06:16:35.200Z,36.47
2019-01-21T06:19:27.154Z,36.07
2019-01-21T06:22:29.893Z,25.83
2019-01-21T06:25:17.433Z,26.57
2019-01-21T06:28:00.325Z,20.47
2019-01-21T06:30:34.562Z,23.33
2019-01-21T06:33:37.166Z,23.33
2019-01-21T06:36:15.540Z,35.37
2019-01-21T06:39:27.044Z,23.57
2019-01-21T06:42:31.787Z,21.10
2019-01-21T06:45:37.258Z,20.20
2019-01-21T06:48:29.505Z,18.97
2019-01-21T06:51:12.249Z,18.40
2019-01-21T06:53:58.187Z,15.27
2019-01-21T06:56:47.315Z,15.57
2019-01-21T06:59:58.714Z,13.23
2019-01-21T07:02:55.343Z,13.27
2019-01-21T07:05:47.497Z,14.30
2019-01-21T07:11:14.042Z,13.63
2019-01-21T07:14:00.033Z,11.97
2019-01-21T07:16:46.048Z,11.73
2019-01-21T07:19:36.901Z,12.60
2019-01-21T07:22:28.585Z,11.20
2019-01-21T07:25:25.325Z,12.47
2019-01-21T07:28:08.537Z,13.83
2019-01-21T07:31:06.750Z,12.67
2019-01-21T07:34:05.150Z,13.70
2019-01-21T07:36:45.920Z,14.43
2019-01-21T07:39:33.831Z,13.77
2019-01-21T07:42:31.878Z,14.70
2019-01-21T07:45:14.978Z,13.23
2019-01-21T07:48:16.239Z,13.00
2019-01-21T07:51:15.496Z,12.17
2019-01-21T07:53:58.540Z,13.33
2019-01-21T07:56:38.231Z,13.97
2019-01-21T07:59:51.593Z,12.83
2019-01-21T08:02:31.664Z,13.43
2019-01-21T08:05:29.650Z,12.77
2019-01-21T08:08:12.990Z,11.53
2019-01-21T08:11:14.504Z,14.17
2019-01-21T08:13:48.771Z,13.23
2019-01-21T08:16:52.726Z,14.80
2019-01-21T08:19:46.340Z,13.67
2019-01-21T08:22:54.744Z,12.97
2019-01-21T08:25:49.973Z,15.10
2019-01-21T08:28:30.233Z,16.40
2019-01-21T08:31:24.821Z,16.10
2019-01-21T08:34:47.221Z,15.57
2019-01-21T08:37:44.754Z,15.07
2019-01-21T08:40:33.875Z,16.70
2019-01-21T08:43:46.748Z,15.47
2019-01-21T08:46:32.497Z,15.17
2019-01-21T08:49:12.068Z,15.33
2019-01-21T08:51:48.850Z,15.20
2019-01-21T08:54:44.123Z,15.87
2019-01-21T08:57:42.896Z,15.83
2019-01-21T09:00:19.968Z,16.87
2019-01-21T09:03:19.291Z,16.43
2019-01-21T09:05:53.542Z,16.57
2019-01-21T09:08:52.879Z,17.80
2019-01-21T09:11:32.040Z,16.50
2019-01-21T09:14:46.602Z,16.80
2019-01-21T09:17:35.928Z,16.20
2019-01-21T09:20:21.933Z,16.27
2019-01-21T09:23:09.225Z,16.83
2019-01-21T09:25:55.102Z,15.17
2019-01-21T09:28:57.218Z,13.33
2019-01-21T09:31:52.486Z,12.90
2019-01-21T09:34:48.947Z,13.07
2019-01-21T09:37:37.191Z,12.83
2019-01-21T09:40:26.394Z,14.63
2019-01-21T09:43:15.805Z,11.97
2019-01-21T09:45:52.797Z,13.50
2019-01-21T09:48:20.992Z,13.43
2019-01-21T09:50:51.726Z,12.70
2019-01-21T09:53:24.205Z,13.33
2019-01-21T09:55:55.890Z,14.70
2019-01-21T09:58:25.727Z,13.07
2019-01-21T10:00:56.210Z,14.70
2019-01-21T10:03:26.197Z,13.97
2019-01-21T10:06:00.978Z,13.50
2019-01-21T10:08:44.076Z,13.50
2019-01-21T10:11:40.789Z,14.07
2019-01-21T10:14:59.729Z,13.90
2019-01-21T10:17:59.729Z,14.17
2019-01-21T10:20:54.968Z,14.03
2019-01-21T10:23:41.452Z,14.17
2019-01-21T10:26:34.695Z,14.10
2019-01-21T10:29:37.114Z,14.27
2019-01-21T10:32:43.008Z,14.70
2019-01-21T10:35:40.148Z,14.10
2019-01-21T10:38:51.672Z,14.00
2019-01-21T10:41:46.634Z,15.60
2019-01-21T10:44:27.069Z,15.03
2019-01-21T10:47:25.345Z,15.37
2019-01-21T10:50:11.406Z,15.43
2019-01-21T10:53:04.886Z,15.13
2019-01-21T10:55:59.888Z,16.47
2019-01-21T10:58:46.428Z,15.50
2019-01-21T11:01:52.837Z,14.77
2019-01-21T11:05:00.773Z,15.27
2019-01-21T11:07:41.202Z,16.17
2019-01-21T11:11:05.695Z,15.50
2019-01-21T11:14:12.389Z,16.03
2019-01-21T11:17:06.723Z,16.13
2019-01-21T11:20:18.898Z,16.13
2019-01-21T11:23:01.697Z,17.13
2019-01-21T11:26:12.999Z,16.67
2019-01-21T11:28:51.062Z,16.30
2019-01-21T11:31:40.926Z,15.90
2019-01-21T11:34:33.257Z,15.43
2019-01-21T11:37:23.635Z,16.77
2019-01-21T11:40:34.415Z,15.90
2019-01-21T11:43:23.723Z,17.67
2019-01-21T11:46:22.002Z,17.47
2019-01-21T11:49:32.801Z,16.57
2019-01-21T11:52:25.313Z,15.90
2019-01-21T11:55:23.496Z,15.93
2019-01-21T11:58:18.678Z,15.47
2019-01-21T12:00:58.771Z,15.03
2019-01-21T12:03:45.138Z,15.73
2019-01-21T12:06:15.384Z,16.37
2019-01-21T12:08:55.819Z,16.40
2019-01-21T12:11:39.151Z,16.97
2019-01-21T12:14:25.436Z,16.60
2019-01-21T12:17:14.493Z,16.43
2019-01-21T12:20:19.231Z,15.87
2019-01-21T12:23:19.338Z,14.77
2019-01-21T12:25:56.764Z,15.10
2019-01-21T12:28:52.201Z,14.70
2019-01-21T12:31:35.275Z,15.20
2019-01-21T12:34:21.792Z,14.67
2019-01-21T12:36:59.412Z,16.03
2019-01-21T12:39:51.691Z,15.53
2019-01-21T12:42:43.863Z,16.40
2019-01-21T12:45:33.025Z,14.57
2019-01-21T12:48:15.828Z,16.57
2019-01-21T12:51:02.213Z,13.20
2019-01-21T12:53:51.235Z,14.47
2019-01-21T12:56:37.412Z,15.63
2019-01-21T12:59:36.942Z,15.33
2019-01-21T13:02:16.942Z,15.40
2019-01-21T13:04:59.323Z,14.40
2019-01-21T13:07:39.256Z,14.87
2019-01-21T13:10:36.001Z,15.97
2019-01-21T13:13:44.567Z,16.53
2019-01-21T13:16:24.742Z,14.93
2019-01-21T13:19:36.534Z,15.90
2019-01-21T13:22:39.278Z,16.00
2019-01-21T13:25:32.751Z,15.60
2019-01-21T13:28:24.393Z,15.73
2019-01-21T13:31:32.382Z,17.23
2019-01-21T13:34:27.781Z,16.00
2019-01-21T13:37:13.588Z,17.13
2019-01-21T13:40:19.958Z,17.00
2019-01-21T13:43:15.038Z,18.13
2019-01-21T13:45:54.795Z,16.20
2019-01-21T13:48:34.538Z,15.37
2019-01-21T13:51:11.862Z,15.57
2019-01-21T13:54:09.860Z,16.13
2019-01-21T13:56:52.913Z,14.80
2019-01-21T14:00:09.002Z,15.50
2019-01-21T14:02:45.241Z,14.27
2019-01-21T14:05:30.852Z,14.77
2019-01-21T14:08:15.927Z,15.90
2019-01-21T14:11:16.810Z,15.93
2019-01-21T14:13:53.689Z,16.17
2019-01-21T14:16:55.570Z,14.47
2019-01-21T14:19:36.159Z,14.30
2019-01-21T14:22:34.350Z,14.67
2019-01-21T14:25:35.541Z,13.40
2019-01-21T14:28:27.508Z,12.97
2019-01-21T14:31:28.576Z,13.80
2019-01-21T14:34:09.428Z,15.13
2019-01-21T14:37:02.648Z,13.80
2019-01-21T14:39:42.167Z,13.93
2019-01-21T14:42:31.100Z,13.07
2019-01-21T14:45:31.033Z,16.03
2019-01-21T14:48:24.829Z,13.87
2019-01-21T14:51:28.455Z,15.67
2019-01-21T14:54:13.761Z,14.43
2019-01-21T14:57:10.302Z,14.53
2019-01-21T15:00:05.671Z,14.10
2019-01-21T15:02:54.539Z,14.67
2019-01-21T15:06:08.931Z,14.17
2019-01-21T15:08:43.292Z,13.80
2019-01-21T15:11:21.344Z,15.37
2019-01-21T15:14:07.184Z,16.17
2019-01-21T15:16:47.069Z,15.90
2019-01-21T15:19:21.342Z,16.03
2019-01-21T15:22:19.758Z,16.73
2019-01-21T15:25:18.910Z,15.23
2019-01-21T15:28:11.114Z,15.47
2019-01-21T15:31:00.150Z,16.03
2019-01-21T15:33:40.191Z,15.33
2019-01-21T15:36:43.381Z,14.73
2019-01-21T15:39:20.523Z,16.43
2019-01-21T15:42:29.392Z,18.57
2019-01-21T15:45:18.202Z,17.33
2019-01-21T15:48:04.235Z,18.10
2019-01-21T15:50:41.296Z,17.67
2019-01-21T15:53:42.708Z,18.60
2019-01-21T15:56:26.751Z,17.07
2019-01-21T15:59:09.724Z,16.60
2019-01-21T16:01:49.907Z,16.83
2019-01-21T16:04:38.583Z,17.40
2019-01-21T16:07:15.625Z,17.63
2019-01-21T16:10:04.193Z,20.50
2019-01-21T16:12:59.313Z,19.03
2019-01-21T16:16:05.729Z,23.17
2019-01-21T16:18:45.834Z,19.73
2019-01-21T16:21:23.571Z,20.50
2019-01-21T16:24:20.210Z,22.53
2019-01-21T16:27:31.480Z,19.10
2019-01-21T16:30:28.912Z,17.40
2019-01-21T16:33:14.819Z,16.97
2019-01-21T16:36:16.180Z,18.50
2019-01-21T16:38:50.726Z,18.17
2019-01-21T16:41:44.820Z,19.37
2019-01-21T16:44:14.904Z,19.50
2019-01-21T16:46:52.306Z,19.13
2019-01-21T16:49:22.004Z,18.60
2019-01-21T16:51:51.755Z,16.83
2019-01-21T16:54:21.415Z,17.70
2019-01-21T16:56:51.212Z,18.83
2019-01-21T16:59:27.373Z,20.40
2019-01-21T17:01:57.055Z,16.97
2019-01-21T17:04:27.115Z,17.73
2019-01-21T17:06:56.918Z,18.37
2019-01-21T17:09:26.705Z,18.87
2019-01-21T17:11:56.442Z,20.07
2019-01-21T17:14:26.049Z,19.47
2019-01-21T17:16:55.913Z,20.77
2019-01-21T17:19:25.866Z,18.63
2019-01-21T17:21:56.037Z,20.90
2019-01-21T17:24:27.345Z,20.53
2019-01-21T17:26:57.193Z,19.80
2019-01-21T17:29:26.820Z,23.90
2019-01-21T17:31:57.328Z,20.17
2019-01-21T17:34:27.095Z,19.10
2019-01-21T17:36:57.081Z,20.23
2019-01-21T17:39:26.711Z,18.93
2019-01-21T17:41:56.794Z,19.20
2019-01-21T17:44:29.377Z,19.33
2019-01-21T17:46:59.920Z,20.80
2019-01-21T17:49:29.668Z,20.37
2019-01-21T17:51:59.408Z,20.20
2019-01-21T17:54:34.641Z,19.57
2019-01-21T17:57:00.435Z,20.33
2019-01-21T17:59:30.143Z,19.60
2019-01-21T18:01:59.792Z,21.80
2019-01-21T18:04:29.489Z,21.70
2019-01-21T18:07:02.082Z,21.00
2019-01-21T18:09:31.826Z,20.67
2019-01-21T18:12:02.053Z,24.83
2019-01-21T18:14:32.149Z,24.73
2019-01-21T18:17:01.834Z,23.53
2019-01-21T18:19:32.001Z,21.90
2019-01-21T18:22:02.410Z,21.63
2019-01-21T18:24:32.829Z,22.47
2019-01-21T18:27:03.034Z,21.23
2019-01-21T18:29:33.213Z,20.87
2019-01-21T18:32:05.287Z,23.13
2019-01-21T18:34:36.287Z,21.83
2019-01-21T18:37:07.616Z,23.53
2019-01-21T18:39:38.391Z,22.20
2019-01-21T18:42:08.723Z,20.80
2019-01-21T18:44:39.568Z,21.53
2019-01-21T18:47:12.037Z,23.00
2019-01-21T18:49:43.630Z,22.77
2019-01-21T18:52:16.251Z,22.60
2019-01-21T18:54:47.093Z,21.17
2019-01-21T18:57:17.631Z,24.23
2019-01-21T18:59:48.556Z,25.07
2019-01-21T19:02:19.690Z,23.60
2019-01-21T19:04:50.466Z,20.50
2019-01-21T19:07:21.310Z,46.80
2019-01-21T19:09:52.359Z,27.73
2019-01-21T19:12:23.966Z,22.53
2019-01-21T19:14:54.535Z,24.03
2019-01-21T19:17:24.874Z,20.77
2019-01-21T19:19:55.319Z,23.77
2019-01-21T19:22:25.996Z,21.80
2019-01-21T19:24:56.602Z,20.23
2019-01-21T19:27:27.904Z,20.27
2019-01-21T19:29:58.059Z,20.70
2019-01-21T19:32:28.535Z,20.90
2019-01-21T19:34:58.640Z,20.73
2019-01-21T19:37:28.809Z,21.43
2019-01-21T19:39:59.273Z,21.63
2019-01-21T19:42:29.677Z,21.33
2019-01-21T19:44:59.899Z,21.37
2019-01-21T19:47:30.524Z,23.23
2019-01-21T19:50:00.954Z,21.90
2019-01-21T19:52:32.469Z,22.10
2019-01-21T19:55:02.727Z,22.97
2019-01-21T19:57:35.089Z,22.37
2019-01-21T20:00:08.715Z,23.60
2019-01-21T20:02:39.099Z,21.67
2019-01-21T20:05:11.584Z,22.90
2019-01-21T20:07:44.320Z,21.17
2019-01-21T20:10:22.453Z,23.03
2019-01-21T20:12:52.872Z,23.40
2019-01-21T20:15:23.371Z,22.57
2019-01-21T20:17:53.510Z,21.10
2019-01-21T20:20:27.796Z,21.73
2019-01-21T20:23:04.884Z,22.53
2019-01-21T20:25:36.965Z,21.97
2019-01-21T20:28:07.336Z,22.90
2019-01-21T20:30:37.743Z,24.30
2019-01-21T20:33:08.273Z,24.10
2019-01-21T20:35:39.111Z,23.40
2019-01-21T20:38:19.594Z,22.20
2019-01-21T20:40:50.919Z,22.57
2019-01-21T20:43:21.979Z,23.33
2019-01-21T20:45:53.588Z,23.30
2019-01-21T20:48:25.271Z,22.70
2019-01-21T20:50:55.839Z,22.53
2019-01-21T20:53:26.236Z,23.80
2019-01-21T20:56:11.541Z,25.30
2019-01-21T20:58:41.718Z,25.33
2019-01-21T21:01:13.831Z,24.93
2019-01-21T21:03:44.722Z,23.80
2019-01-21T21:06:15.282Z,23.67
2019-01-21T21:08:45.774Z,24.00
2019-01-21T21:11:17.298Z,21.93
2019-01-21T21:13:47.907Z,23.23
2019-01-21T21:16:18.469Z,23.37
2019-01-21T21:18:50.415Z,22.47
2019-01-21T21:21:20.650Z,22.40
2019-01-21T21:23:51.042Z,22.20
2019-01-21T21:26:21.672Z,22.63
2019-01-21T21:28:51.999Z,22.77
2019-01-21T21:31:22.138Z,22.77
2019-01-21T21:33:53.993Z,21.57
2019-01-21T21:36:24.059Z,23.77
2019-01-21T21:38:57.613Z,22.40
2019-01-21T21:41:28.735Z,22.90
2019-01-21T21:43:59.415Z,22.53
2019-01-21T21:46:29.985Z,24.57
2019-01-21T21:49:00.747Z,22.57
2019-01-21T21:51:38.981Z,26.53
2019-01-21T21:54:47.924Z,26.23
2019-01-21T21:57:18.507Z,25.97
2019-01-21T21:59:49.038Z,25.20
2019-01-21T22:02:21.168Z,24.30
2019-01-21T22:04:51.980Z,23.40
2019-01-21T22:07:22.511Z,24.40
2019-01-21T22:09:55.226Z,24.60
2019-01-21T22:12:27.636Z,23.93
2019-01-21T22:15:03.374Z,25.30
2019-01-21T22:17:36.257Z,24.87
2019-01-21T22:20:14.966Z,24.47
2019-01-21T22:22:45.181Z,23.60
2019-01-21T22:25:19.658Z,24.70
2019-01-21T22:27:50.893Z,24.13
2019-01-21T22:30:29.958Z,24.30
2019-01-21T22:33:01.870Z,24.23
2019-01-21T22:35:34.026Z,24.00
2019-01-21T22:38:05.867Z,24.57
2019-01-21T22:40:44.549Z,25.03
2019-01-21T22:43:25.959Z,24.63
2019-01-21T22:45:58.886Z,23.60
2019-01-21T22:48:32.893Z,24.30
2019-01-21T22:51:04.400Z,24.07
2019-01-21T22:53:34.949Z,24.43
2019-01-21T22:56:08.792Z,25.10
2019-01-21T22:58:39.131Z,23.97
2019-01-21T23:01:13.795Z,23.93
2019-01-21T23:03:44.031Z,23.83
2019-01-21T23:06:20.404Z,23.33
2019-01-21T23:08:52.860Z,23.63
2019-01-21T23:11:24.949Z,26.47
2019-01-21T23:13:57.039Z,25.00
2019-01-21T23:16:49.495Z,24.70
2019-01-21T23:19:19.688Z,25.97
2019-01-21T23:21:51.130Z,23.10
2019-01-21T23:24:23.203Z,24.83
2019-01-21T23:26:54.542Z,23.23
2019-01-21T23:29:25.286Z,25.30
2019-01-21T23:35:06.740Z,24.20
2019-01-21T23:37:36.657Z,24.07
2019-01-21T23:40:10.987Z,22.70
2019-01-21T23:42:53.341Z,22.60
2019-01-21T23:45:22.546Z,23.50
2019-01-21T23:47:53.290Z,22.77
2019-01-21T23:50:23.363Z,22.07
2019-01-21T23:52:56.177Z,23.63
2019-01-21T23:55:24.771Z,24.60
2019-01-21T23:57:54.585Z,39.33
